TimeCDT,TemperatureF,Dew PointF,Humidity,Sea Level PressureIn,VisibilityMPH,Wind Direction,Wind SpeedMPH,Gust SpeedMPH,PrecipitationIn,Events,Conditions,WindDirDegrees,DateUTC
12:15 AM,60.8,53.6,77,30.09,10.0,SSE,5.8,-,N/A,,Clear,150,2012-10-23 05:15:00
12:35 AM,57.2,51.8,82,30.09,10.0,SSE,5.8,-,N/A,,Clear,160,2012-10-23 05:35:00
12:55 AM,57.2,51.8,82,30.09,10.0,SSE,5.8,-,N/A,,Clear,160,2012-10-23 05:55:00
1:15 AM,57.2,51.8,82,30.09,10.0,SSE,5.8,-,N/A,,Clear,160,2012-10-23 06:15:00
1:35 AM,57.2,51.8,82,30.09,10.0,SSE,5.8,-,N/A,,Clear,160,2012-10-23 06:35:00
1:55 AM,57.2,51.8,82,30.08,10.0,SSE,4.6,-,N/A,,Clear,160,2012-10-23 06:55:00
2:15 AM,57.2,51.8,82,30.08,10.0,SSE,5.8,-,N/A,,Clear,160,2012-10-23 07:15:00
2:55 AM,57.2,51.8,82,30.07,10.0,SSE,5.8,-,N/A,,Clear,150,2012-10-23 07:55:00
3:15 AM,57.2,51.8,82,30.07,10.0,SSE,4.6,-,N/A,,Clear,150,2012-10-23 08:15:00
3:35 AM,55.4,51.8,88,30.06,10.0,SSE,6.9,-,N/A,,Clear,150,2012-10-23 08:35:00
3:55 AM,55.4,51.8,88,30.07,10.0,SSE,5.8,-,N/A,,Clear,160,2012-10-23 08:55:00
4:15 AM,53.6,48.2,82,30.07,10.0,South,4.6,-,N/A,,Clear,170,2012-10-23 09:15:00
4:35 AM,53.6,48.2,82,30.07,10.0,South,4.6,-,N/A,,Clear,170,2012-10-23 09:35:00
4:55 AM,53.6,48.2,82,30.07,10.0,SSE,4.6,-,N/A,,Clear,160,2012-10-23 09:55:00
5:15 AM,53.6,50.0,88,30.08,10.0,Calm,Calm,-,N/A,,Clear,0,2012-10-23 10:15:00
5:35 AM,53.6,50.0,88,30.10,10.0,Calm,Calm,-,N/A,,Clear,0,2012-10-23 10:35:00
7:45 AM,51.8,48.2,88,30.14,10.0,Calm,Calm,-,N/A,,Clear,0,2012-10-23 12:45:00
8:45 AM,59.0,53.6,82,30.16,10.0,SSE,4.6,-,N/A,,Clear,150,2012-10-23 13:45:00
9:50 AM,64.4,55.4,73,30.16,10.0,SSE,4.6,-,N/A,,Clear,160,2012-10-23 14:50:00
10:45 AM,69.8,57.2,64,30.15,10.0,SE,4.6,-,N/A,,Clear,140,2012-10-23 15:45:00
11:45 AM,75.2,55.4,50,30.13,10.0,SSE,6.9,-,N/A,,Clear,160,2012-10-23 16:45:00
12:45 PM,77.0,55.4,47,30.11,10.0,South,8.1,-,N/A,,Clear,170,2012-10-23 17:45:00
1:50 PM,78.8,55.4,44,30.08,10.0,South,6.9,-,N/A,,Clear,190,2012-10-23 18:50:00
2:55 PM,78.8,57.2,47,30.06,10.0,South,6.9,-,N/A,,Partly Cloudy,180,2012-10-23 19:55:00
3:50 PM,78.8,55.4,44,30.06,10.0,South,9.2,-,N/A,,Partly Cloudy,170,2012-10-23 20:50:00
4:45 PM,78.8,55.4,44,30.05,10.0,South,8.1,-,N/A,,Clear,180,2012-10-23 21:45:00
5:45 PM,73.4,55.4,53,30.05,10.0,SSE,6.9,-,N/A,,Clear,150,2012-10-23 22:45:00
6:50 PM,71.6,55.4,57,30.06,10.0,SSE,6.9,-,N/A,,Clear,150,2012-10-23 23:50:00
8:15 PM,68.0,55.4,64,30.06,10.0,SE,8.1,-,N/A,,Clear,140,2012-10-24 01:15:00
8:35 PM,66.2,55.4,68,30.06,10.0,SE,6.9,-,N/A,,Clear,140,2012-10-24 01:35:00
8:55 PM,66.2,55.4,68,30.07,10.0,SSE,6.9,-,N/A,,Clear,150,2012-10-24 01:55:00
9:15 PM,66.2,53.6,64,30.07,10.0,SSE,5.8,-,N/A,,Clear,150,2012-10-24 02:15:00
9:35 PM,66.2,53.6,64,30.08,10.0,SSE,5.8,-,N/A,,Clear,150,2012-10-24 02:35:00
9:55 PM,64.4,53.6,68,30.08,10.0,SSE,5.8,-,N/A,,Clear,150,2012-10-24 02:55:00
10:15 PM,64.4,53.6,68,30.08,10.0,SSE,6.9,-,N/A,,Clear,160,2012-10-24 03:15:00
10:35 PM,64.4,53.6,68,30.08,10.0,SSE,6.9,-,N/A,,Clear,150,2012-10-24 03:35:00
10:55 PM,62.6,53.6,72,30.08,10.0,SSE,8.1,-,N/A,,Clear,150,2012-10-24 03:55:00
11:15 PM,62.6,53.6,72,30.08,10.0,SSE,5.8,-,N/A,,Clear,150,2012-10-24 04:15:00
11:35 PM,62.6,53.6,72,30.08,10.0,SE,6.9,-,N/A,,Clear,140,2012-10-24 04:35:00
11:55 PM,60.8,53.6,77,30.08,10.0,SSE,6.9,-,N/A,,Clear,150,2012-10-24 04:55:00